This is the latest recevied weather packets stored in our database for station/object BMCB-27. If no packets are shown the sender has not sent any weather packets the latest 10 day(s).
| Time | Temp. | Humidity | Pressure | Rain* | Wind** | Luminosity | Snow |
|---|---|---|---|---|---|---|---|
| 1777729691 | 21.67° C | 59% | 1015 hPa | 0 mm | - | 482 W/m² | - |
| 1777722491 | 19.44° C | 67% | 1016.8 hPa | 0 mm | - | 434 W/m² | - |
| 1777717195 | 20.56° C | 62% | 1017.1 hPa | 0 mm | - | 286 W/m² | - |
| 1777713399 | 20° C | 66% | 1017.6 hPa | 8.89 mm | - | 674 W/m² | - |
| 1777710836 | 18.89° C | 68% | 1017.7 hPa | 7.37 mm | - | 562 W/m² | - |
| 1777710372 | 18.89° C | 69% | 1017.7 hPa | 7.37 mm | - | 498 W/m² | - |
| 1777709670 | 18.89° C | 68% | 1017.8 hPa | 3.3 mm | - | 456 W/m² | - |
| 1777707858 | 17.22° C | 72% | 1018 hPa | 0 mm | - | 444 W/m² | - |
| 1777705856 | 16.11° C | 75% | 1018.3 hPa | 0 mm | - | 352 W/m² | - |
| 1777704835 | 15.56° C | 78% | 1018.4 hPa | 0 mm | - | 268 W/m² | - |
| 1777702412 | 13.89° C | 83% | 1018.6 hPa | 0 mm | - | 102 W/m² | - |
| 1777700898 | 13.33° C | 82% | 1018.8 hPa | 0 mm | - | 106 W/m² | - |
| 1777700153 | 13.89° C | 79% | 1018.7 hPa | 0 mm | - | 54 W/m² | - |
| 1777691633 | 15° C | 58% | 1018.8 hPa | 0 mm | - | 0 W/m² | - |
| 1777691237 | 15° C | 58% | 1018.9 hPa | 0 mm | - | 0 W/m² | - |
| 1777690492 | 15° C | 56% | 1018.8 hPa | 0 mm | - | 0 W/m² | - |
| 1777683651 | 13.33° C | 49% | 1019.2 hPa | 0 mm | - | 0 W/m² | - |
| 1777677601 | 12.78° C | 50% | 1019.6 hPa | 0 mm | - | 0 W/m² | - |
| 1777672641 | 13.89° C | 47% | 1020.3 hPa | 0 mm | - | 0 W/m² | - |
| 1777670842 | 13.89° C | 47% | 1020.3 hPa | 0 mm | - | 0 W/m² | - |
| 1777669642 | 14.44° C | 45% | 1020.5 hPa | 0 mm | - | 0 W/m² | - |
| 1777668442 | 13.89° C | 49% | 1020.6 hPa | 0 mm | - | 0 W/m² | - |
| 1777661823 | 18.33° C | 36% | 1019.7 hPa | 0 mm | - | 0 W/m² | - |
| 1777658842 | 21.67° C | 25% | 1019.2 hPa | 0 mm | - | 50 W/m² | - |
| 1777658400 | 21.67° C | 25% | 1019.1 hPa | 0 mm | - | 62 W/m² | - |
* Rain latest hour (hover to see other rain measurements)
** Current wind speed in m/s (hover to see current wind gust speed)